Cameron, Louisiana
Current Conditions -  °F | °C
As of 1:55 PM on Friday 24 Oct 2014 (Local Time) from KCVW Reporting Station
Clear Clear  
Wind Chill: 72°   Ceiling: Unl
Heat Index: 72°   Visibility: 10mi
Dew Point: 50°   Wind: 8mph
Humidity: 46%   Direction: 330°NNW
Pressure: 30.13"   Gusts: NA
Location:  29.8°N, 93.33°W
Report Text: KCVW 241855Z AUTO 33007KT 310V010 10SM CLR 22/10 A3013 RMK A01
Loading
Personal Weather Stations






























Interactive Weather Map
Tropical Storm Tracking
New forecast layout! Learn more

10-Day Weather Forecast

Advertisements
Track Severe Weather on mobile